createdAt,value
2023-04-18T00:00:39.811Z,1002.42
2023-04-18T00:01:39.791Z,1002.47
2023-04-18T00:02:39.870Z,1002.50
2023-04-18T00:03:40.035Z,1002.51
2023-04-18T00:04:39.782Z,1002.49
2023-04-18T00:05:39.765Z,1002.53
2023-04-18T00:06:39.719Z,1002.51
2023-04-18T00:07:39.722Z,1002.55
2023-04-18T00:08:39.704Z,1002.50
2023-04-18T00:09:39.738Z,1002.49
2023-04-18T00:10:39.723Z,1002.45
2023-04-18T00:11:39.679Z,1002.55
2023-04-18T00:12:39.656Z,1002.48
2023-04-18T00:13:39.662Z,1002.46
2023-04-18T00:14:39.643Z,1002.47
2023-04-18T00:15:39.627Z,1002.50
2023-04-18T00:16:39.644Z,1002.43
2023-04-18T00:17:39.710Z,1002.48
2023-04-18T00:18:39.590Z,1002.47
2023-04-18T00:19:39.592Z,1002.42
2023-04-18T00:20:39.635Z,1002.49
2023-04-18T00:21:39.587Z,1002.49
2023-04-18T00:22:39.545Z,1002.43
2023-04-18T00:23:39.529Z,1002.50
2023-04-18T00:24:39.560Z,1002.44
2023-04-18T00:25:39.507Z,1002.49
2023-04-18T00:26:39.499Z,1002.45
2023-04-18T00:27:39.490Z,1002.46
2023-04-18T00:28:39.488Z,1002.51
2023-04-18T00:29:39.534Z,1002.50
2023-04-18T00:30:39.503Z,1002.53
2023-04-18T00:31:39.497Z,1002.49
2023-04-18T00:32:39.480Z,1002.51
2023-04-18T00:33:39.424Z,1002.48
2023-04-18T00:34:39.432Z,1002.49
2023-04-18T00:35:39.406Z,1002.48
2023-04-18T00:36:39.438Z,1002.47
2023-04-18T00:37:39.385Z,1002.49
2023-04-18T00:38:39.369Z,1002.49
2023-04-18T00:39:39.361Z,1002.54
2023-04-18T00:40:39.402Z,1002.50
2023-04-18T00:41:39.349Z,1002.50
2023-04-18T00:42:39.335Z,1002.51
2023-04-18T00:43:39.351Z,1002.47
2023-04-18T00:44:39.336Z,1002.41
2023-04-18T00:45:39.293Z,1002.43
2023-04-18T00:46:39.350Z,1002.43
2023-04-18T00:47:39.357Z,1002.43
2023-04-18T00:48:39.274Z,1002.48
2023-04-18T00:49:39.249Z,1002.38
2023-04-18T00:50:39.283Z,1002.42
2023-04-18T00:51:39.225Z,1002.41
2023-04-18T00:52:39.231Z,1002.32
2023-04-18T00:53:39.207Z,1002.28
2023-04-18T00:54:39.197Z,1002.34
2023-04-18T00:55:39.205Z,1002.40
2023-04-18T00:56:39.185Z,1002.31
2023-04-18T00:57:39.156Z,1002.38
2023-04-18T00:58:39.141Z,1002.38
2023-04-18T00:59:39.146Z,1002.33
2023-04-18T01:00:39.163Z,1002.39
2023-04-18T01:01:39.249Z,1002.43
2023-04-18T01:02:39.188Z,1002.43
2023-04-18T01:03:39.317Z,1002.38
2023-04-18T01:04:39.151Z,1002.36
2023-04-18T01:05:39.097Z,1002.40
2023-04-18T01:06:39.076Z,1002.39
2023-04-18T01:07:39.060Z,1002.41
2023-04-18T01:08:39.047Z,1002.40
2023-04-18T01:09:39.021Z,1002.43
2023-04-18T01:10:39.051Z,1002.34
2023-04-18T01:11:38.999Z,1002.36
2023-04-18T01:12:38.995Z,1002.31
2023-04-18T01:13:38.987Z,1002.36
2023-04-18T01:14:38.967Z,1002.32
2023-04-18T01:15:39.063Z,1002.31
2023-04-18T01:16:38.953Z,1002.32
2023-04-18T01:17:38.962Z,1002.34
2023-04-18T01:18:38.926Z,1002.37
2023-04-18T01:19:38.919Z,1002.28
2023-04-18T01:20:38.924Z,1002.32
2023-04-18T01:21:38.881Z,1002.33
2023-04-18T01:22:38.873Z,1002.28
2023-04-18T01:23:38.858Z,1002.32
2023-04-18T01:24:38.854Z,1002.30
2023-04-18T01:25:38.889Z,1002.27
2023-04-18T01:26:38.835Z,1002.32
2023-04-18T01:27:38.814Z,1002.41
2023-04-18T01:28:38.836Z,1002.26
2023-04-18T01:29:39.068Z,1002.32
2023-04-18T01:30:39.799Z,1002.31
2023-04-18T01:31:38.893Z,1002.27
2023-04-18T01:32:38.771Z,1002.31
2023-04-18T01:33:38.754Z,1002.33
2023-04-18T01:34:38.752Z,1002.35
2023-04-18T01:35:38.744Z,1002.32
2023-04-18T01:36:38.722Z,1002.33
2023-04-18T01:37:38.700Z,1002.32
2023-04-18T01:38:38.698Z,1002.31
2023-04-18T01:39:38.688Z,1002.28
2023-04-18T01:40:38.755Z,1002.21
2023-04-18T01:41:38.660Z,1002.32
2023-04-18T01:42:38.647Z,1002.30
2023-04-18T01:43:38.634Z,1002.25
2023-04-18T01:44:38.622Z,1002.35
2023-04-18T01:45:38.692Z,1002.29
2023-04-18T01:46:38.643Z,1002.31
2023-04-18T01:47:38.635Z,1002.37
2023-04-18T01:48:38.578Z,1002.30
2023-04-18T01:49:38.608Z,1002.28
2023-04-18T01:50:38.574Z,1002.31
2023-04-18T01:51:38.744Z,1002.31
2023-04-18T01:52:38.567Z,1002.32
2023-04-18T01:53:38.519Z,1002.34
2023-04-18T01:54:38.533Z,1002.36
2023-04-18T01:55:38.540Z,1002.36
2023-04-18T01:56:38.489Z,1002.37
2023-04-18T01:57:38.495Z,1002.37
2023-04-18T01:58:38.468Z,1002.31
2023-04-18T01:59:38.461Z,1002.29
2023-04-18T02:00:38.513Z,1002.37
2023-04-18T02:01:38.432Z,1002.34
2023-04-18T02:02:38.501Z,1002.33
2023-04-18T02:03:38.564Z,1002.34
2023-04-18T02:04:38.397Z,1002.27
2023-04-18T02:05:38.400Z,1002.28
2023-04-18T02:06:38.372Z,1002.33
2023-04-18T02:07:38.403Z,1002.35
2023-04-18T02:08:38.357Z,1002.24
2023-04-18T02:09:38.351Z,1002.23
2023-04-18T02:10:38.372Z,1002.19
2023-04-18T02:11:38.317Z,1002.23
2023-04-18T02:12:38.301Z,1002.30
2023-04-18T02:13:38.340Z,1002.35
2023-04-18T02:14:38.312Z,1002.31
2023-04-18T02:15:38.310Z,1002.31
2023-04-18T02:16:38.288Z,1002.34
2023-04-18T02:17:38.285Z,1002.31
2023-04-18T02:18:38.251Z,1002.23
2023-04-18T02:19:38.231Z,1002.25
2023-04-18T02:20:38.241Z,1002.29
2023-04-18T02:21:38.210Z,1002.20
2023-04-18T02:22:38.220Z,1002.20
2023-04-18T02:23:38.174Z,1002.21
2023-04-18T02:24:38.164Z,1002.22
2023-04-18T02:25:38.181Z,1002.20
2023-04-18T02:26:38.136Z,1002.23
2023-04-18T02:27:38.123Z,1002.22
2023-04-18T02:28:38.120Z,1002.16
2023-04-18T02:29:38.188Z,1002.23
2023-04-18T02:30:38.139Z,1002.27
2023-04-18T02:31:38.142Z,1002.26
2023-04-18T02:32:38.168Z,1002.30
2023-04-18T02:33:38.066Z,1002.27
2023-04-18T02:34:38.075Z,1002.26
2023-04-18T02:35:38.072Z,1002.27
2023-04-18T02:36:38.025Z,1002.30
2023-04-18T02:37:38.010Z,1002.25
2023-04-18T02:38:38.002Z,1002.21
2023-04-18T02:39:37.999Z,1002.22
2023-04-18T02:40:38.024Z,1002.24
2023-04-18T02:41:37.983Z,1002.19
2023-04-18T02:42:37.966Z,1002.27
2023-04-18T02:43:37.975Z,1002.25
2023-04-18T02:44:37.955Z,1002.27
2023-04-18T02:45:38.004Z,1002.20
2023-04-18T02:46:37.910Z,1002.24
2023-04-18T02:47:51.254Z,1002.26
2023-04-18T02:48:39.904Z,1002.15
2023-04-18T02:49:37.871Z,1002.21
2023-04-18T02:50:37.956Z,1002.22
2023-04-18T02:51:37.855Z,1002.25
2023-04-18T02:52:37.843Z,1002.16
2023-04-18T02:53:37.827Z,1002.17
2023-04-18T02:54:37.822Z,1002.20
2023-04-18T02:55:37.833Z,1002.20
2023-04-18T02:56:37.795Z,1002.14
2023-04-18T02:57:37.775Z,1002.21
2023-04-18T02:58:38.776Z,1002.24
2023-04-18T02:59:37.766Z,1002.24
2023-04-18T03:00:37.819Z,1002.26
2023-04-18T03:01:37.802Z,1002.23
2023-04-18T03:02:37.813Z,1002.22
2023-04-18T03:03:37.712Z,1002.25
2023-04-18T03:04:37.736Z,1002.30
2023-04-18T03:05:37.726Z,1002.25
2023-04-18T03:06:37.681Z,1002.19
2023-04-18T03:07:37.672Z,1002.23
2023-04-18T03:08:37.656Z,1002.19
2023-04-18T03:09:37.664Z,1002.28
2023-04-18T03:10:37.703Z,1002.24
2023-04-18T03:11:37.635Z,1002.18
2023-04-18T03:12:37.634Z,1002.26
2023-04-18T03:13:37.610Z,1002.24
2023-04-18T03:14:37.612Z,1002.26
2023-04-18T03:15:37.624Z,1002.26
2023-04-18T03:16:37.567Z,1002.26
2023-04-18T03:17:37.572Z,1002.27
2023-04-18T03:18:37.562Z,1002.22
2023-04-18T03:19:37.532Z,1002.27
2023-04-18T03:20:37.587Z,1002.22
2023-04-18T03:21:37.525Z,1002.29
2023-04-18T03:22:37.503Z,1002.25
2023-04-18T03:23:37.493Z,1002.32
2023-04-18T03:24:37.522Z,1002.27
2023-04-18T03:25:37.495Z,1002.31
2023-04-18T03:26:37.462Z,1002.28
2023-04-18T03:27:37.455Z,1002.33
2023-04-18T03:28:37.442Z,1002.30
2023-04-18T03:29:37.429Z,1002.29
2023-04-18T03:30:37.475Z,1002.31
2023-04-18T03:31:37.508Z,1002.33
2023-04-18T03:32:37.415Z,1002.28
2023-04-18T03:33:37.391Z,1002.32
2023-04-18T03:34:37.376Z,1002.33
2023-04-18T03:35:37.389Z,1002.28
2023-04-18T03:36:37.352Z,1002.26
2023-04-18T03:37:37.341Z,1002.37
2023-04-18T03:38:37.326Z,1002.32
2023-04-18T03:39:37.325Z,1002.31
2023-04-18T03:40:37.331Z,1002.29
2023-04-18T03:41:37.301Z,1002.32
2023-04-18T03:42:37.298Z,1002.36
2023-04-18T03:43:37.287Z,1002.35
2023-04-18T03:44:37.291Z,1002.28
2023-04-18T03:45:37.279Z,1002.28
2023-04-18T03:46:37.371Z,1002.31
2023-04-18T03:47:37.254Z,1002.36
2023-04-18T03:48:37.364Z,1002.36
2023-04-18T03:49:37.216Z,1002.34
2023-04-18T03:50:37.226Z,1002.40
2023-04-18T03:51:37.191Z,1002.35
2023-04-18T03:52:37.184Z,1002.34
2023-04-18T03:53:37.169Z,1002.32
2023-04-18T03:54:37.169Z,1002.37
2023-04-18T03:55:37.168Z,1002.39
2023-04-18T03:56:37.137Z,1002.40
2023-04-18T03:57:37.142Z,1002.39
2023-04-18T03:58:37.117Z,1002.44
2023-04-18T03:59:37.115Z,1002.39
2023-04-18T04:00:37.125Z,1002.35
2023-04-18T04:02:09.562Z,1002.40
2023-04-18T04:02:37.206Z,1002.39
2023-04-18T04:03:37.279Z,1002.34
2023-04-18T04:04:37.075Z,1002.35
2023-04-18T04:05:37.058Z,1002.41
2023-04-18T04:06:37.050Z,1002.43
2023-04-18T04:07:37.021Z,1002.37
2023-04-18T04:08:37.001Z,1002.42
2023-04-18T04:09:37.007Z,1002.44
2023-04-18T04:10:37.025Z,1002.42
2023-04-18T04:11:36.976Z,1002.44
2023-04-18T04:12:36.959Z,1002.41
2023-04-18T04:13:37.016Z,1002.46
2023-04-18T04:14:36.938Z,1002.44
2023-04-18T04:15:36.960Z,1002.50
2023-04-18T04:16:37.034Z,1002.47
2023-04-18T04:17:36.939Z,1002.50
2023-04-18T04:18:36.907Z,1002.48
2023-04-18T04:19:36.892Z,1002.47
2023-04-18T04:20:36.899Z,1002.44
2023-04-18T04:21:36.875Z,1002.51
2023-04-18T04:22:36.865Z,1002.55
2023-04-18T04:23:36.852Z,1002.53
2023-04-18T04:24:36.853Z,1002.55
2023-04-18T04:25:36.862Z,1002.60
2023-04-18T04:26:36.822Z,1002.58
2023-04-18T04:27:36.860Z,1002.58
2023-04-18T04:28:36.825Z,1002.61
2023-04-18T04:29:36.789Z,1002.59
2023-04-18T04:30:36.817Z,1002.58
2023-04-18T04:31:36.820Z,1002.57
2023-04-18T04:32:36.798Z,1002.63
2023-04-18T04:33:36.740Z,1002.63
2023-04-18T04:34:36.764Z,1002.63
2023-04-18T04:35:36.749Z,1002.65
2023-04-18T04:36:36.721Z,1002.64
2023-04-18T04:37:36.718Z,1002.66
2023-04-18T04:38:36.685Z,1002.64
2023-04-18T04:39:36.686Z,1002.66
2023-04-18T04:40:36.676Z,1002.69
2023-04-18T04:41:36.694Z,1002.67
2023-04-18T04:42:36.652Z,1002.67
2023-04-18T04:43:36.656Z,1002.65
2023-04-18T04:44:36.651Z,1002.70
2023-04-18T04:45:36.669Z,1002.68
2023-04-18T04:46:36.603Z,1002.69
2023-04-18T04:47:36.670Z,1002.70
2023-04-18T04:48:36.585Z,1002.68
2023-04-18T04:49:36.570Z,1002.70
2023-04-18T04:50:36.560Z,1002.73
2023-04-18T04:51:36.594Z,1002.74
2023-04-18T04:52:36.546Z,1002.71
2023-04-18T04:53:36.536Z,1002.66
2023-04-18T04:54:36.541Z,1002.71
2023-04-18T04:55:36.545Z,1002.62
2023-04-18T04:56:36.496Z,1002.68
2023-04-18T04:57:36.486Z,1002.69
2023-04-18T04:58:36.478Z,1002.63
2023-04-18T04:59:36.465Z,1002.68
2023-04-18T05:00:36.462Z,1002.65
2023-04-18T05:01:36.594Z,1002.65
2023-04-18T05:02:36.588Z,1002.65
2023-04-18T05:03:36.686Z,1002.66
2023-04-18T05:04:36.493Z,1002.68
2023-04-18T05:05:36.429Z,1002.68
2023-04-18T05:06:37.431Z,1002.68
2023-04-18T05:07:36.388Z,1002.71
2023-04-18T05:08:36.386Z,1002.60
2023-04-18T05:09:36.369Z,1002.62
2023-04-18T05:10:36.362Z,1002.65
2023-04-18T05:11:36.435Z,1002.56
2023-04-18T05:12:36.388Z,1002.57
2023-04-18T05:13:36.335Z,1002.64
2023-04-18T05:14:36.319Z,1002.60
2023-04-18T05:15:36.310Z,1002.65
2023-04-18T05:16:36.373Z,1002.71
2023-04-18T05:17:36.352Z,1002.74
2023-04-18T05:18:36.274Z,1002.74
2023-04-18T05:19:36.258Z,1002.73
2023-04-18T05:20:36.304Z,1002.66
2023-04-18T05:21:36.244Z,1002.75
2023-04-18T05:22:36.230Z,1002.73
2023-04-18T05:23:36.212Z,1002.73
2023-04-18T05:24:36.214Z,1002.74
2023-04-18T05:25:36.227Z,1002.73
2023-04-18T05:26:36.184Z,1002.77
2023-04-18T05:27:36.202Z,1002.76
2023-04-18T05:28:36.170Z,1002.79
2023-04-18T05:29:36.149Z,1002.79
2023-04-18T05:30:36.209Z,1002.75
2023-04-18T05:31:36.292Z,1002.85
2023-04-18T05:32:36.199Z,1002.87
2023-04-18T05:33:36.115Z,1002.86
2023-04-18T05:34:38.033Z,1002.88
2023-04-18T05:35:37.119Z,1002.85
2023-04-18T05:36:36.097Z,1002.85
2023-04-18T05:37:36.100Z,1002.86
2023-04-18T05:38:36.091Z,1002.93
2023-04-18T05:39:36.051Z,1002.86
2023-04-18T05:40:36.086Z,1002.83
2023-04-18T05:41:36.042Z,1002.89
2023-04-18T05:42:36.024Z,1002.78
2023-04-18T05:43:36.026Z,1002.86
2023-04-18T05:44:36.022Z,1002.85
2023-04-18T05:45:36.031Z,1002.78
2023-04-18T05:46:36.039Z,1002.81
2023-04-18T05:47:36.027Z,1002.85
2023-04-18T05:48:35.989Z,1002.83
2023-04-18T05:49:35.957Z,1002.92
2023-04-18T05:50:35.981Z,1002.90
2023-04-18T05:51:35.946Z,1002.79
2023-04-18T05:52:35.924Z,1002.92
2023-04-18T05:53:35.926Z,1002.88
2023-04-18T05:54:35.910Z,1002.90
2023-04-18T05:55:35.918Z,1002.96
2023-04-18T05:56:35.906Z,1002.90
2023-04-18T05:57:35.874Z,1002.96
2023-04-18T05:58:35.863Z,1002.97
2023-04-18T05:59:35.871Z,1002.93
2023-04-18T06:00:35.926Z,1002.93
2023-04-18T06:01:35.840Z,1002.91
2023-04-18T06:02:35.961Z,1003.05
2023-04-18T06:03:36.046Z,1002.94
2023-04-18T06:04:35.960Z,1002.93
2023-04-18T06:05:35.946Z,1002.99
2023-04-18T06:06:35.778Z,1003.01
2023-04-18T06:07:35.777Z,1002.99
2023-04-18T06:08:35.755Z,1003.06
2023-04-18T06:09:35.757Z,1003.04
2023-04-18T06:10:37.735Z,1003.06
2023-04-18T06:11:35.763Z,1003.00
2023-04-18T06:12:35.742Z,1003.06
2023-04-18T06:13:35.723Z,1003.05
2023-04-18T06:14:35.701Z,1003.07
2023-04-18T06:15:35.717Z,1003.08
2023-04-18T06:16:35.746Z,1003.06
2023-04-18T06:17:35.699Z,1003.08
2023-04-18T06:18:35.785Z,1003.09
2023-04-18T06:19:35.660Z,1003.13
2023-04-18T06:20:35.669Z,1003.16
2023-04-18T06:21:35.625Z,1003.11
2023-04-18T06:22:35.627Z,1003.09
2023-04-18T06:23:35.630Z,1003.16
2023-04-18T06:24:35.613Z,1003.11
2023-04-18T06:25:35.620Z,1003.10
2023-04-18T06:26:35.572Z,1003.13
2023-04-18T06:27:35.564Z,1003.15
2023-04-18T06:28:35.586Z,1003.16
2023-04-18T06:29:36.230Z,1003.15
2023-04-18T06:30:36.559Z,1003.13
2023-04-18T06:31:35.596Z,1003.24
2023-04-18T06:32:35.640Z,1003.16
2023-04-18T06:33:35.500Z,1003.11
2023-04-18T06:34:35.490Z,1003.20
2023-04-18T06:35:35.520Z,1003.20
2023-04-18T06:36:35.472Z,1003.21
2023-04-18T06:37:35.471Z,1003.23
2023-04-18T06:38:35.457Z,1003.24
2023-04-18T06:39:35.443Z,1003.22
2023-04-18T06:40:35.470Z,1003.22
2023-04-18T06:41:35.432Z,1003.26
2023-04-18T06:42:35.406Z,1003.28
2023-04-18T06:43:35.397Z,1003.26
2023-04-18T06:44:35.395Z,1003.28
2023-04-18T06:45:35.407Z,1003.24
2023-04-18T06:46:35.374Z,1003.24
2023-04-18T06:47:35.384Z,1003.25
2023-04-18T06:48:35.355Z,1003.25
2023-04-18T06:49:35.346Z,1003.33
2023-04-18T06:50:35.361Z,1003.33
2023-04-18T06:51:35.319Z,1003.34
2023-04-18T06:52:35.310Z,1003.37
2023-04-18T06:53:35.302Z,1003.33
2023-04-18T06:54:35.295Z,1003.36
2023-04-18T06:55:35.407Z,1003.40
2023-04-18T06:56:36.583Z,1003.40
2023-04-18T06:57:36.263Z,1003.39
2023-04-18T06:58:35.245Z,1003.45
2023-04-18T06:59:35.236Z,1003.48
2023-04-18T07:00:35.323Z,1003.44
2023-04-18T07:01:35.327Z,1003.48
2023-04-18T07:02:35.334Z,1003.50
2023-04-18T07:03:35.289Z,1003.42
2023-04-18T07:04:35.271Z,1003.40
2023-04-18T07:05:35.205Z,1003.36
2023-04-18T07:06:36.181Z,1003.44
2023-04-18T07:07:35.165Z,1003.46
2023-04-18T07:08:35.150Z,1003.49
2023-04-18T07:09:35.134Z,1003.51
2023-04-18T07:10:35.128Z,1003.49
2023-04-18T07:11:35.161Z,1003.44
2023-04-18T07:12:35.109Z,1003.46
2023-04-18T07:13:35.099Z,1003.47
2023-04-18T07:14:35.097Z,1003.48
2023-04-18T07:15:35.072Z,1003.56
2023-04-18T07:16:35.108Z,1003.47
2023-04-18T07:17:35.071Z,1003.51
2023-04-18T07:18:38.302Z,1003.59
2023-04-18T07:19:36.041Z,1003.53
2023-04-18T07:20:35.045Z,1003.54
2023-04-18T07:21:35.061Z,1003.49
2023-04-18T07:22:35.020Z,1003.53
2023-04-18T07:23:36.057Z,1003.53
2023-04-18T07:24:34.976Z,1003.49
2023-04-18T07:25:35.977Z,1003.54
2023-04-18T07:26:34.978Z,1003.57
2023-04-18T07:27:35.071Z,1003.53
2023-04-18T07:28:34.955Z,1003.51
2023-04-18T07:29:34.942Z,1003.52
2023-04-18T07:30:34.948Z,1003.49
2023-04-18T07:31:34.978Z,1003.51
2023-04-18T07:32:35.000Z,1003.53
2023-04-18T07:33:34.907Z,1003.56
2023-04-18T07:34:34.888Z,1003.57
2023-04-18T07:35:34.887Z,1003.59
2023-04-18T07:36:34.882Z,1003.55
2023-04-18T07:37:34.865Z,1003.56
2023-04-18T07:38:34.842Z,1003.59
2023-04-18T07:39:34.842Z,1003.57
2023-04-18T07:40:34.836Z,1003.53
2023-04-18T07:41:34.839Z,1003.50
2023-04-18T07:42:34.825Z,1003.60
2023-04-18T07:43:34.887Z,1003.56
2023-04-18T07:44:34.823Z,1003.51
2023-04-18T07:45:34.778Z,1003.56
2023-04-18T07:46:34.805Z,1003.53
2023-04-18T07:47:34.825Z,1003.54
2023-04-18T07:48:34.751Z,1003.54
2023-04-18T07:49:34.734Z,1003.54
2023-04-18T07:50:34.743Z,1003.56
2023-04-18T07:51:34.772Z,1003.55
2023-04-18T07:52:34.749Z,1003.54
2023-04-18T07:53:34.707Z,1003.61
2023-04-18T07:54:34.715Z,1003.52
2023-04-18T07:55:34.685Z,1003.57
2023-04-18T07:56:34.742Z,1003.59
2023-04-18T07:57:34.672Z,1003.63
2023-04-18T07:58:34.679Z,1003.64
2023-04-18T07:59:34.641Z,1003.64
2023-04-18T08:00:34.635Z,1003.66
2023-04-18T08:01:34.672Z,1003.66
2023-04-18T08:02:34.737Z,1003.62
2023-04-18T08:03:34.674Z,1003.71
2023-04-18T08:04:34.724Z,1003.69
2023-04-18T08:05:34.691Z,1003.72
2023-04-18T08:06:34.647Z,1003.73
2023-04-18T08:07:34.565Z,1003.67
2023-04-18T08:08:34.550Z,1003.74
2023-04-18T08:09:34.544Z,1003.70
2023-04-18T08:10:34.533Z,1003.75
2023-04-18T08:11:34.542Z,1003.72
2023-04-18T08:12:34.536Z,1003.71
2023-04-18T08:13:34.509Z,1003.73
2023-04-18T08:14:34.496Z,1003.72
2023-04-18T08:15:34.484Z,1003.71
2023-04-18T08:16:34.518Z,1003.69
2023-04-18T08:17:34.471Z,1003.76
2023-04-18T08:18:34.451Z,1003.77
2023-04-18T08:19:34.443Z,1003.73
2023-04-18T08:20:34.428Z,1003.79
2023-04-18T08:21:34.471Z,1003.78
2023-04-18T08:22:34.415Z,1003.77
2023-04-18T08:23:34.415Z,1003.79
2023-04-18T08:24:34.389Z,1003.84
2023-04-18T08:25:34.383Z,1003.82
2023-04-18T08:26:34.386Z,1003.81
2023-04-18T08:27:34.380Z,1003.80
2023-04-18T08:28:34.348Z,1003.87
2023-04-18T08:29:34.337Z,1003.82
2023-04-18T08:30:35.318Z,1003.80
2023-04-18T08:31:34.368Z,1003.86
2023-04-18T08:32:34.332Z,1003.82
2023-04-18T08:33:34.303Z,1003.86
2023-04-18T08:34:34.291Z,1003.90
2023-04-18T08:35:34.288Z,1003.85
2023-04-18T08:36:34.311Z,1003.96
2023-04-18T08:37:34.259Z,1003.86
2023-04-18T08:38:34.254Z,1003.84
2023-04-18T08:39:34.237Z,1003.81
2023-04-18T08:40:34.220Z,1003.90
2023-04-18T08:41:34.258Z,1003.80
2023-04-18T08:42:34.220Z,1003.80
2023-04-18T08:43:34.208Z,1003.82
2023-04-18T08:44:34.187Z,1003.83
2023-04-18T08:45:34.273Z,1003.86
2023-04-18T08:46:34.192Z,1003.83
2023-04-18T08:47:34.177Z,1003.86
2023-04-18T08:48:34.148Z,1003.79
2023-04-18T08:49:34.134Z,1003.82
2023-04-18T08:50:34.120Z,1003.85
2023-04-18T08:51:34.166Z,1003.85
2023-04-18T08:52:34.142Z,1003.87
2023-04-18T08:53:34.130Z,1003.81
2023-04-18T08:54:34.085Z,1003.83
2023-04-18T08:55:34.066Z,1003.79
2023-04-18T08:56:34.084Z,1003.76
2023-04-18T08:57:34.051Z,1003.75
2023-04-18T08:58:34.044Z,1003.80
2023-04-18T08:59:34.034Z,1003.78
2023-04-18T09:00:34.022Z,1003.71
2023-04-18T09:01:34.073Z,1003.71
2023-04-18T09:02:35.163Z,1003.80
2023-04-18T09:03:34.011Z,1003.79
2023-04-18T09:04:34.097Z,1003.81
2023-04-18T09:05:33.981Z,1003.82
2023-04-18T09:06:33.975Z,1003.81
2023-04-18T09:07:34.960Z,1003.76
2023-04-18T09:08:33.935Z,1003.74
2023-04-18T09:09:33.922Z,1003.76
2023-04-18T09:10:33.936Z,1003.74
2023-04-18T09:11:33.937Z,1003.69
2023-04-18T09:12:33.905Z,1003.67
2023-04-18T09:13:33.893Z,1003.74
2023-04-18T09:14:33.886Z,1003.69
2023-04-18T09:15:33.872Z,1003.64
2023-04-18T09:16:33.939Z,1003.65
2023-04-18T09:17:33.918Z,1003.72
2023-04-18T09:18:33.837Z,1003.61
2023-04-18T09:19:33.855Z,1003.62
2023-04-18T09:20:33.813Z,1003.57
2023-04-18T09:21:33.857Z,1003.70
2023-04-18T09:22:33.797Z,1003.64
2023-04-18T09:23:33.794Z,1003.61
2023-04-18T09:24:33.775Z,1003.56
2023-04-18T09:25:33.774Z,1003.62
2023-04-18T09:26:33.790Z,1003.59
2023-04-18T09:27:33.754Z,1003.57
2023-04-18T09:28:33.801Z,1003.55
2023-04-18T09:29:33.729Z,1003.59
2023-04-18T09:30:33.742Z,1003.66
2023-04-18T09:31:33.783Z,1003.63
2023-04-18T09:32:33.748Z,1003.63
2023-04-18T09:33:33.702Z,1003.65
2023-04-18T09:34:33.677Z,1003.57
2023-04-18T09:35:34.038Z,1003.50
2023-04-18T09:36:34.693Z,1003.52
2023-04-18T09:37:33.652Z,1003.54
2023-04-18T09:38:33.641Z,1003.57
2023-04-18T09:39:33.628Z,1003.57
2023-04-18T09:40:33.625Z,1003.58
2023-04-18T09:41:33.640Z,1003.53
2023-04-18T09:42:33.602Z,1003.63
2023-04-18T09:43:33.593Z,1003.54
2023-04-18T09:44:33.580Z,1003.52
2023-04-18T09:45:33.569Z,1003.60
2023-04-18T09:46:33.598Z,1003.53
2023-04-18T09:47:33.605Z,1003.62
2023-04-18T09:48:33.538Z,1003.61
2023-04-18T09:49:33.539Z,1003.60
2023-04-18T09:50:33.519Z,1003.61
2023-04-18T09:51:33.541Z,1003.59
2023-04-18T09:52:33.501Z,1003.53
2023-04-18T09:53:33.497Z,1003.50
2023-04-18T09:54:33.493Z,1003.53
2023-04-18T09:55:33.484Z,1003.49
2023-04-18T09:56:33.463Z,1003.53
2023-04-18T09:57:33.475Z,1003.61
2023-04-18T09:58:33.442Z,1003.68
2023-04-18T09:59:33.432Z,1003.62
2023-04-18T10:00:33.428Z,1003.52
2023-04-18T10:01:33.461Z,1003.54
2023-04-18T10:03:05.392Z,1003.55
2023-04-18T10:03:33.487Z,1003.52
2023-04-18T10:04:33.474Z,1003.54
2023-04-18T10:05:33.497Z,1003.60
2023-04-18T10:06:33.403Z,1003.58
2023-04-18T10:07:33.402Z,1003.55
2023-04-18T10:08:33.361Z,1003.56
2023-04-18T10:09:33.336Z,1003.58
2023-04-18T10:10:33.328Z,1003.55
2023-04-18T10:11:33.338Z,1003.57
2023-04-18T10:12:33.309Z,1003.68
2023-04-18T10:13:33.293Z,1003.55
2023-04-18T10:14:33.283Z,1003.63
2023-04-18T10:15:33.353Z,1003.56
2023-04-18T10:16:34.971Z,1003.60
2023-04-18T10:17:33.355Z,1003.63
2023-04-18T10:18:33.278Z,1003.59
2023-04-18T10:19:33.239Z,1003.55
2023-04-18T10:20:33.212Z,1003.59
2023-04-18T10:21:33.295Z,1003.56
2023-04-18T10:22:33.227Z,1003.56
2023-04-18T10:23:33.186Z,1003.55
2023-04-18T10:24:33.192Z,1003.48
2023-04-18T10:25:33.183Z,1003.49
2023-04-18T10:26:33.194Z,1003.51
2023-04-18T10:27:33.150Z,1003.48
2023-04-18T10:28:33.139Z,1003.43
2023-04-18T10:29:33.149Z,1003.47
2023-04-18T10:30:33.117Z,1003.45
2023-04-18T10:31:33.184Z,1003.42
2023-04-18T10:32:33.150Z,1003.37
2023-04-18T10:33:33.642Z,1003.47
2023-04-18T10:34:33.090Z,1003.48
2023-04-18T10:35:33.099Z,1003.36
2023-04-18T10:36:33.109Z,1003.37
2023-04-18T10:37:33.075Z,1003.41
2023-04-18T10:38:33.055Z,1003.43
2023-04-18T10:39:33.043Z,1003.33
2023-04-18T10:40:33.058Z,1003.33
2023-04-18T10:41:33.033Z,1003.32
2023-04-18T10:42:33.073Z,1003.26
2023-04-18T10:43:33.002Z,1003.26
2023-04-18T10:44:33.019Z,1003.26
2023-04-18T10:45:32.975Z,1003.28
2023-04-18T10:46:33.121Z,1003.32
2023-04-18T10:47:33.200Z,1003.34
2023-04-18T10:48:33.031Z,1003.29
2023-04-18T10:49:33.875Z,1003.31
2023-04-18T10:50:32.927Z,1003.32
2023-04-18T10:51:32.927Z,1003.24
2023-04-18T10:52:32.931Z,1003.30
2023-04-18T10:53:32.905Z,1003.37
2023-04-18T10:54:32.896Z,1003.31
2023-04-18T10:55:33.050Z,1003.28
2023-04-18T10:56:32.917Z,1003.31
2023-04-18T10:57:32.853Z,1003.31
2023-04-18T10:58:32.839Z,1003.31
2023-04-18T10:59:32.859Z,1003.30
2023-04-18T11:00:32.888Z,1003.32
2023-04-18T11:01:33.150Z,1003.28
2023-04-18T11:02:32.968Z,1003.28
2023-04-18T11:03:32.861Z,1003.27
2023-04-18T11:04:32.820Z,1003.24
2023-04-18T11:05:32.791Z,1003.35
2023-04-18T11:06:32.775Z,1003.33
2023-04-18T11:07:32.761Z,1003.33
2023-04-18T11:08:32.742Z,1003.24
2023-04-18T11:09:32.749Z,1003.30
2023-04-18T11:10:32.731Z,1003.33
2023-04-18T11:11:32.765Z,1003.37
2023-04-18T11:12:32.711Z,1003.32
2023-04-18T11:13:32.703Z,1003.28
2023-04-18T11:14:32.691Z,1003.34
2023-04-18T11:15:32.677Z,1003.30
2023-04-18T11:16:32.755Z,1003.31
2023-04-18T11:17:32.738Z,1003.26
2023-04-18T11:18:32.643Z,1003.31
2023-04-18T11:19:32.626Z,1003.33
2023-04-18T11:20:32.618Z,1003.31
2023-04-18T11:21:32.630Z,1003.23
2023-04-18T11:22:32.684Z,1003.22
2023-04-18T11:23:32.592Z,1003.28
2023-04-18T11:24:32.584Z,1003.28
2023-04-18T11:25:32.568Z,1003.24
2023-04-18T11:26:32.585Z,1003.21
2023-04-18T11:27:32.556Z,1003.27
2023-04-18T11:28:32.552Z,1003.21
2023-04-18T11:29:32.529Z,1003.27
2023-04-18T11:30:32.526Z,1003.18
2023-04-18T11:31:32.602Z,1003.31
2023-04-18T11:32:32.629Z,1003.19
2023-04-18T11:33:32.510Z,1003.30
2023-04-18T11:34:32.485Z,1003.25
2023-04-18T11:35:32.496Z,1003.25
2023-04-18T11:36:32.474Z,1003.21
2023-04-18T11:37:32.458Z,1003.24
2023-04-18T11:38:32.448Z,1003.22
2023-04-18T11:39:32.438Z,1003.19
2023-04-18T11:40:32.440Z,1003.14
2023-04-18T11:41:32.488Z,1003.16
2023-04-18T11:42:32.402Z,1003.18
2023-04-18T11:43:32.420Z,1003.13
2023-04-18T11:44:33.756Z,1003.22
2023-04-18T11:45:33.379Z,1003.20
2023-04-18T11:46:32.488Z,1003.16
2023-04-18T11:47:32.395Z,1003.27
2023-04-18T11:48:32.344Z,1003.16
2023-04-18T11:49:32.327Z,1003.23
2023-04-18T11:50:32.317Z,1003.26
2023-04-18T11:51:32.354Z,1003.23
2023-04-18T11:52:32.304Z,1003.27
2023-04-18T11:53:32.292Z,1003.25
2023-04-18T11:54:32.398Z,1003.24
2023-04-18T11:55:32.328Z,1003.22
2023-04-18T11:56:34.630Z,1003.24
2023-04-18T11:57:32.256Z,1003.28
2023-04-18T11:58:32.248Z,1003.20
2023-04-18T11:59:32.284Z,1003.16
2023-04-18T12:00:32.214Z,1003.18
2023-04-18T12:01:32.236Z,1003.22
2023-04-18T12:02:32.284Z,1003.25
2023-04-18T12:03:32.310Z,1003.20
2023-04-18T12:04:32.270Z,1003.15
2023-04-18T12:05:32.375Z,1003.20